createdAt,value
2023-04-28T00:00:42.509Z,101280.78
2023-04-28T00:06:02.778Z,101278.72
2023-04-28T00:11:12.491Z,101285.28
2023-04-28T00:16:19.048Z,101287.81
2023-04-28T00:21:27.047Z,101286.06
2023-04-28T00:26:35.276Z,101289.56
2023-04-28T00:31:41.828Z,101296.34
2023-04-28T00:36:49.860Z,101291.09
2023-04-28T00:41:56.689Z,101303.94
2023-04-28T00:47:03.274Z,101293.56
2023-04-28T00:52:11.336Z,101298.22
2023-04-28T00:57:17.608Z,101303.00
2023-04-28T01:02:24.265Z,101306.53
2023-04-28T01:07:33.013Z,101304.00
2023-04-28T01:12:39.313Z,101298.00
2023-04-28T01:17:46.897Z,101306.31
2023-04-28T01:22:54.929Z,101313.22
2023-04-28T01:28:03.840Z,101325.38
2023-04-28T01:33:11.158Z,101322.41
2023-04-28T01:38:17.873Z,101314.56
2023-04-28T01:43:29.732Z,101308.81
2023-04-28T01:48:36.286Z,101313.28
2023-04-28T01:53:42.616Z,101315.16
2023-04-28T01:58:50.358Z,101320.22
2023-04-28T02:03:57.115Z,101313.94
2023-04-28T02:09:03.632Z,101310.44
2023-04-28T02:14:12.239Z,101317.72
2023-04-28T02:19:39.146Z,101315.03
2023-04-28T02:24:46.054Z,101315.59
2023-04-28T02:29:54.207Z,101314.16
2023-04-28T02:35:01.252Z,101304.84
2023-04-28T02:40:11.294Z,101308.38
2023-04-28T02:45:19.481Z,101309.28
2023-04-28T02:50:25.883Z,101304.00
2023-04-28T02:55:33.931Z,101314.84
2023-04-28T03:00:42.116Z,101321.78
2023-04-28T03:05:48.559Z,101323.56
2023-04-28T03:10:55.558Z,101326.34
2023-04-28T03:16:03.655Z,101331.78
2023-04-28T03:21:10.385Z,101324.94
2023-04-28T03:26:16.986Z,101324.34
2023-04-28T03:31:24.671Z,101332.25
2023-04-28T03:36:31.168Z,101333.13
2023-04-28T03:41:44.962Z,101336.47
2023-04-28T03:47:31.454Z,101340.84
2023-04-28T03:52:38.094Z,101335.69
2023-04-28T03:57:47.091Z,101339.75
2023-04-28T04:02:55.390Z,101343.47
2023-04-28T04:08:02.685Z,101340.06
2023-04-28T04:13:10.528Z,101338.41
2023-04-28T04:18:18.610Z,101346.75
2023-04-28T04:23:45.080Z,101345.50
2023-04-28T04:28:52.046Z,101356.03
2023-04-28T04:34:00.257Z,101359.09
2023-04-28T04:39:07.016Z,101361.81
2023-04-28T04:44:14.478Z,101350.75
2023-04-28T04:49:27.063Z,101346.88
2023-04-28T04:54:34.880Z,101358.69
2023-04-28T04:59:42.360Z,101366.66
2023-04-28T05:05:01.791Z,101362.47
2023-04-28T05:10:16.204Z,101364.38
2023-04-28T05:15:23.604Z,101366.38
2023-04-28T05:20:50.139Z,101355.38
2023-04-28T05:25:58.702Z,101371.25
2023-04-28T05:31:05.901Z,101363.75
2023-04-28T05:36:17.247Z,101364.06
2023-04-28T05:41:25.901Z,101372.06
2023-04-28T05:46:32.915Z,101365.25
2023-04-28T05:51:42.167Z,101374.09
2023-04-28T05:56:48.964Z,101367.41
2023-04-28T06:01:55.652Z,101368.44
2023-04-28T06:07:03.857Z,101371.19
2023-04-28T06:12:12.595Z,101377.38
2023-04-28T06:17:19.919Z,101371.44
2023-04-28T06:22:28.289Z,101368.13
2023-04-28T06:27:34.936Z,101373.44
2023-04-28T06:32:42.416Z,101371.84
2023-04-28T06:37:50.644Z,101372.09
2023-04-28T06:42:57.149Z,101377.44
2023-04-28T06:48:11.423Z,101373.38
2023-04-28T06:53:20.507Z,101364.91
2023-04-28T06:58:27.902Z,101361.53
2023-04-28T07:03:34.713Z,101365.00
2023-04-28T07:08:43.515Z,101359.84
2023-04-28T07:13:52.112Z,101365.03
2023-04-28T07:19:00.658Z,101359.88
2023-04-28T07:24:09.611Z,101348.63
2023-04-28T07:29:16.668Z,101344.28
2023-04-28T07:34:23.251Z,101338.22
2023-04-28T07:39:32.728Z,101338.22
2023-04-28T07:44:39.672Z,101337.38
2023-04-28T07:49:45.928Z,101328.63
2023-04-28T07:54:53.684Z,101322.56
2023-04-28T08:00:00.871Z,101318.28
2023-04-28T08:05:12.641Z,101320.84
2023-04-28T08:10:21.946Z,101318.25
2023-04-28T08:15:29.273Z,101310.25
2023-04-28T08:20:35.742Z,101315.47
2023-04-28T08:25:43.756Z,101312.97
2023-04-28T08:30:50.313Z,101306.03
2023-04-28T08:35:58.316Z,101306.00
2023-04-28T08:41:09.059Z,101302.47
2023-04-28T08:46:17.923Z,101298.09
2023-04-28T08:51:34.920Z,101292.00
2023-04-28T08:56:45.803Z,101288.41
2023-04-28T09:01:52.977Z,101290.13
2023-04-28T09:06:59.307Z,101283.94
2023-04-28T09:12:07.815Z,101284.72
2023-04-28T09:17:16.865Z,101275.06
2023-04-28T09:22:30.928Z,101261.81
2023-04-28T09:27:38.912Z,101265.19
2023-04-28T09:32:45.537Z,101256.38
2023-04-28T09:38:01.335Z,101252.75
2023-04-28T09:43:27.033Z,101248.56
2023-04-28T09:48:35.863Z,101251.22
2023-04-28T09:53:44.618Z,101247.81
2023-04-28T09:58:55.359Z,101227.78
2023-04-28T10:04:03.738Z,101224.03
2023-04-28T10:09:10.565Z,101214.88
2023-04-28T10:14:18.554Z,101215.56
2023-04-28T10:19:25.238Z,101208.88
2023-04-28T10:24:32.667Z,101204.25
2023-04-28T10:29:40.942Z,101192.78
2023-04-28T10:34:47.796Z,101199.91
2023-04-28T10:40:33.775Z,101192.97
2023-04-28T10:46:10.815Z,101193.03
2023-04-28T10:51:39.671Z,101192.91
2023-04-28T10:57:23.183Z,101175.25
2023-04-28T11:02:47.448Z,101168.72
2023-04-28T11:08:33.649Z,101156.38
2023-04-28T11:13:41.921Z,101151.38
2023-04-28T11:19:11.898Z,101151.13
2023-04-28T11:24:18.119Z,101148.09
2023-04-28T11:29:34.258Z,101153.88
2023-04-28T11:34:42.938Z,101151.59
2023-04-28T11:39:49.771Z,101149.91
2023-04-28T11:44:57.300Z,101151.03
2023-04-28T11:50:07.081Z,101144.16
2023-04-28T11:55:19.620Z,101145.84
2023-04-28T12:00:29.254Z,101128.69
2023-04-28T12:05:39.018Z,101123.50
2023-04-28T12:10:46.087Z,101116.03
2023-04-28T12:15:53.462Z,101111.09
2023-04-28T12:21:01.971Z,101108.47
2023-04-28T12:26:09.966Z,101106.47
2023-04-28T12:31:16.509Z,101103.34
2023-04-28T12:36:24.714Z,101093.69
2023-04-28T12:41:31.663Z,101091.06
2023-04-28T12:46:39.220Z,101094.78
2023-04-28T12:51:47.363Z,101092.88
2023-04-28T12:56:54.992Z,101085.03
2023-04-28T13:02:02.658Z,101081.88
2023-04-28T13:07:11.058Z,101079.84
2023-04-28T13:12:18.090Z,101075.34
2023-04-28T13:17:25.136Z,101058.84
2023-04-28T13:22:33.369Z,101062.97
2023-04-28T13:27:41.929Z,101059.16
2023-04-28T13:32:50.234Z,101050.75
2023-04-28T13:38:02.296Z,101041.88
2023-04-28T13:43:08.780Z,101038.66
2023-04-28T13:48:15.413Z,101028.34
2023-04-28T13:53:23.505Z,101022.63
2023-04-28T13:58:31.418Z,101014.16
2023-04-28T14:03:37.980Z,101010.63
2023-04-28T14:08:46.096Z,101010.59
2023-04-28T14:13:52.634Z,100993.53
2023-04-28T14:19:00.239Z,101002.34
2023-04-28T14:24:10.323Z,100999.09
2023-04-28T14:29:17.085Z,100994.41
2023-04-28T14:34:25.133Z,100982.91
2023-04-28T14:39:33.341Z,100975.50
2023-04-28T14:44:39.851Z,100973.88
2023-04-28T14:49:46.836Z,100977.41
2023-04-28T14:54:58.096Z,100973.06
2023-04-28T15:00:09.004Z,100961.56
2023-04-28T15:05:17.138Z,100951.13
2023-04-28T15:10:25.303Z,100943.13
2023-04-28T15:15:33.667Z,100941.88
2023-04-28T15:20:40.319Z,100939.28
2023-04-28T15:25:50.325Z,100939.94
2023-04-28T15:30:57.338Z,100940.59
2023-04-28T15:36:05.485Z,100934.25
2023-04-28T15:41:13.685Z,100927.28
2023-04-28T15:46:20.448Z,100917.66
2023-04-28T15:51:27.691Z,100923.31
2023-04-28T15:56:36.873Z,100923.63
2023-04-28T16:01:43.536Z,100922.00
2023-04-28T16:06:52.453Z,100927.38
2023-04-28T16:12:05.074Z,100914.50
2023-04-28T16:17:11.658Z,100918.44
2023-04-28T16:22:18.308Z,100905.78
2023-04-28T16:27:26.332Z,100907.88
2023-04-28T16:32:34.046Z,100905.63
2023-04-28T16:37:41.285Z,100901.47
2023-04-28T16:42:49.231Z,100896.38
2023-04-28T16:47:55.564Z,100900.88
2023-04-28T16:53:01.934Z,100896.72
2023-04-28T16:58:10.005Z,100890.81
2023-04-28T17:03:16.992Z,100881.50
2023-04-28T17:08:23.738Z,100876.63
2023-04-28T17:13:32.855Z,100881.13
2023-04-28T17:18:41.797Z,100884.84
2023-04-28T17:23:48.578Z,100879.19
2023-04-28T17:28:59.033Z,100878.56
2023-04-28T17:34:06.011Z,100874.47
2023-04-28T17:39:14.837Z,100879.03
2023-04-28T17:44:24.256Z,100876.84
2023-04-28T17:49:31.257Z,100878.19
2023-04-28T17:54:38.301Z,100882.13
2023-04-28T17:59:50.722Z,100870.38
2023-04-28T18:04:57.976Z,100873.09
2023-04-28T18:10:06.372Z,100866.38
2023-04-28T18:15:16.294Z,100880.84
2023-04-28T18:20:23.579Z,100869.69
2023-04-28T18:25:33.706Z,100880.56
2023-04-28T18:30:41.302Z,100873.69
2023-04-28T18:36:11.892Z,100879.88
2023-04-28T18:41:24.171Z,100875.72
2023-04-28T18:46:34.499Z,100879.63
2023-04-28T18:51:41.948Z,100874.75
2023-04-28T18:56:55.716Z,100872.44
2023-04-28T19:02:08.236Z,100874.47
2023-04-28T19:07:19.888Z,100876.34
2023-04-28T19:12:33.347Z,100876.50
2023-04-28T19:17:48.921Z,100873.91
2023-04-28T19:22:57.315Z,100873.97
2023-04-28T19:28:05.133Z,100878.38
2023-04-28T19:33:17.480Z,100873.19
2023-04-28T19:38:27.363Z,100875.88
2023-04-28T19:43:34.980Z,100864.69
2023-04-28T19:48:46.554Z,100876.00
2023-04-28T19:53:57.143Z,100870.84
2023-04-28T19:59:06.716Z,100870.84
2023-04-28T20:04:16.346Z,100874.47
2023-04-28T20:09:25.351Z,100871.94
2023-04-28T20:14:33.475Z,100872.84
2023-04-28T20:19:44.636Z,100878.88
2023-04-28T20:24:53.306Z,100877.25
2023-04-28T20:30:06.292Z,100879.00
2023-04-28T20:35:16.501Z,100880.72
2023-04-28T20:40:24.800Z,100884.25
2023-04-28T20:45:33.215Z,100873.91
2023-04-28T20:50:45.778Z,100872.19
2023-04-28T20:55:53.921Z,100873.09
2023-04-28T21:01:01.950Z,100867.94
2023-04-28T21:06:11.437Z,100864.47
2023-04-28T21:11:20.180Z,100865.38
2023-04-28T21:16:29.437Z,100862.81
2023-04-28T21:21:38.856Z,100859.38
2023-04-28T21:26:45.390Z,100856.78
2023-04-28T21:31:52.470Z,100858.50
2023-04-28T21:37:04.209Z,100850.75
2023-04-28T21:42:11.666Z,100851.59
2023-04-28T21:47:19.789Z,100843.84
2023-04-28T21:52:28.234Z,100846.44
2023-04-28T21:57:34.877Z,100844.69
2023-04-28T22:02:42.588Z,100845.53
2023-04-28T22:07:52.048Z,100848.97
2023-04-28T22:12:58.640Z,100848.09
2023-04-28T22:18:05.821Z,100842.06
2023-04-28T22:23:14.532Z,100830.84
2023-04-28T22:28:23.011Z,100833.38
2023-04-28T22:33:30.037Z,100834.25
2023-04-28T22:38:38.282Z,100823.91
2023-04-28T22:43:45.215Z,100823.88
2023-04-28T22:48:52.372Z,100829.03
2023-04-28T22:54:02.127Z,100822.16
2023-04-28T22:59:09.890Z,100816.97
2023-04-28T23:04:18.244Z,100814.38
2023-04-28T23:09:26.919Z,100810.06
2023-04-28T23:14:34.402Z,100810.94
2023-04-28T23:19:43.308Z,100804.88
2023-04-28T23:24:53.309Z,100807.50
2023-04-28T23:30:00.208Z,100800.59
2023-04-28T23:35:09.227Z,100798.91
2023-04-28T23:40:18.319Z,100793.69
2023-04-28T23:45:26.895Z,100783.34
2023-04-28T23:50:33.375Z,100775.59
2023-04-28T23:55:41.410Z,100765.25
